createdAt,value
2022-10-17T00:01:21.975Z,8.96
2022-10-17T00:03:48.509Z,9.00
2022-10-17T00:06:15.306Z,8.96
2022-10-17T00:08:43.201Z,8.97
2022-10-17T00:11:18.384Z,8.94
2022-10-17T00:13:46.684Z,8.93
2022-10-17T00:16:13.085Z,8.92
2022-10-17T00:18:39.530Z,8.88
2022-10-17T00:21:06.510Z,8.89
2022-10-17T00:23:33.718Z,8.96
2022-10-17T00:26:06.054Z,8.97
2022-10-17T00:28:33.110Z,9.09
2022-10-17T00:31:02.404Z,9.26
2022-10-17T00:33:29.860Z,9.22
2022-10-17T00:36:04.579Z,9.09
2022-10-17T00:38:31.027Z,9.03
2022-10-17T00:40:57.470Z,8.97
2022-10-17T00:43:24.228Z,9.09
2022-10-17T00:45:50.789Z,9.68
2022-10-17T00:48:21.227Z,9.79
2022-10-17T00:50:50.096Z,9.67
2022-10-17T00:53:18.386Z,9.56
2022-10-17T00:55:48.209Z,9.54
2022-10-17T00:58:15.535Z,9.38
2022-10-17T01:00:43.217Z,9.24
2022-10-17T01:03:09.671Z,9.12
2022-10-17T01:05:37.021Z,9.10
2022-10-17T01:08:04.029Z,9.10
2022-10-17T01:10:39.152Z,9.15
2022-10-17T01:13:17.955Z,9.15
2022-10-17T01:16:09.879Z,9.19
2022-10-17T01:18:43.852Z,9.19
2022-10-17T01:21:45.540Z,9.24
2022-10-17T01:24:45.153Z,9.24
2022-10-17T01:27:37.799Z,9.29
2022-10-17T01:30:17.301Z,9.35
2022-10-17T01:32:57.072Z,9.36
2022-10-17T01:35:29.570Z,9.32
2022-10-17T01:38:11.597Z,9.34
2022-10-17T01:40:45.895Z,9.43
2022-10-17T01:43:32.052Z,9.84
2022-10-17T01:46:06.131Z,10.08
2022-10-17T01:48:37.952Z,10.29
2022-10-17T01:51:36.307Z,10.50
2022-10-17T01:54:10.690Z,10.52
2022-10-17T01:56:40.396Z,10.60
2022-10-17T01:59:21.312Z,10.36
2022-10-17T02:01:52.309Z,10.11
2022-10-17T02:04:19.284Z,10.02
2022-10-17T02:06:45.868Z,9.98
2022-10-17T02:09:26.270Z,10.15
2022-10-17T02:12:22.479Z,10.35
2022-10-17T02:15:20.835Z,10.54
2022-10-17T02:18:00.324Z,10.55
2022-10-17T02:21:18.823Z,10.56
2022-10-17T02:23:57.314Z,10.54
2022-10-17T02:27:09.946Z,10.69
2022-10-17T02:29:55.772Z,10.62
2022-10-17T02:32:46.623Z,10.81
2022-10-17T02:35:17.414Z,10.80
2022-10-17T02:37:47.222Z,10.80
2022-10-17T02:40:16.382Z,10.85
2022-10-17T02:42:46.069Z,10.81
2022-10-17T02:45:14.570Z,10.85
2022-10-17T02:47:49.587Z,10.77
2022-10-17T02:50:16.212Z,10.93
2022-10-17T02:52:51.043Z,11.12
2022-10-17T02:55:21.075Z,11.00
2022-10-17T02:57:52.612Z,11.22
2022-10-17T03:00:20.261Z,11.22
2022-10-17T03:02:49.489Z,11.24
2022-10-17T03:05:21.139Z,11.24
2022-10-17T03:07:47.583Z,11.18
2022-10-17T03:10:14.318Z,11.20
2022-10-17T03:12:40.800Z,11.21
2022-10-17T03:15:08.051Z,11.18
2022-10-17T03:17:35.551Z,11.04
2022-10-17T03:20:02.525Z,11.02
2022-10-17T03:22:29.123Z,11.13
2022-10-17T03:24:55.734Z,11.13
2022-10-17T03:27:22.331Z,11.12
2022-10-17T03:29:48.703Z,10.99
2022-10-17T03:32:15.203Z,10.94
2022-10-17T03:34:41.624Z,10.93
2022-10-17T03:37:08.044Z,10.90
2022-10-17T03:39:34.471Z,10.98
2022-10-17T03:42:00.935Z,11.03
2022-10-17T03:44:27.412Z,10.94
2022-10-17T03:46:53.827Z,10.98
2022-10-17T03:49:20.232Z,11.21
2022-10-17T03:51:46.648Z,11.28
2022-10-17T03:54:13.223Z,11.20
2022-10-17T03:56:39.648Z,11.22
2022-10-17T03:59:06.026Z,11.43
2022-10-17T04:01:32.517Z,11.45
2022-10-17T04:03:59.011Z,11.52
2022-10-17T04:06:25.444Z,11.57
2022-10-17T04:08:51.888Z,11.54
2022-10-17T04:11:21.151Z,11.48
2022-10-17T04:13:48.059Z,11.52
2022-10-17T04:16:16.831Z,11.58
2022-10-17T04:18:44.259Z,11.84
2022-10-17T04:21:11.768Z,11.75
2022-10-17T04:23:38.709Z,11.77
2022-10-17T04:26:06.228Z,11.68
2022-10-17T04:28:33.793Z,11.76
2022-10-17T04:31:02.543Z,11.63
2022-10-17T04:33:29.044Z,11.61
2022-10-17T04:36:13.147Z,11.70
2022-10-17T04:38:40.171Z,11.77
2022-10-17T04:41:14.989Z,11.91
2022-10-17T04:43:43.542Z,11.88
2022-10-17T04:46:14.886Z,11.96
2022-10-17T04:48:41.642Z,11.96
2022-10-17T04:51:11.639Z,12.02
2022-10-17T04:53:39.157Z,12.01
2022-10-17T04:56:10.077Z,12.06
2022-10-17T04:58:37.907Z,12.18
2022-10-17T05:01:09.066Z,12.15
2022-10-17T05:03:36.120Z,12.19
2022-10-17T05:06:14.046Z,12.45
2022-10-17T05:08:40.673Z,12.31
2022-10-17T05:11:16.923Z,12.21
2022-10-17T05:13:43.365Z,12.19
2022-10-17T05:16:10.790Z,12.36
2022-10-17T05:18:37.333Z,12.22
2022-10-17T05:21:04.409Z,12.20
2022-10-17T05:23:30.910Z,12.14
2022-10-17T05:25:57.769Z,12.09
2022-10-17T05:28:24.633Z,12.01
2022-10-17T05:30:51.041Z,11.93
2022-10-17T05:33:17.476Z,11.93
2022-10-17T05:35:43.873Z,12.06
2022-10-17T05:38:10.371Z,12.14
2022-10-17T05:40:38.551Z,12.01
2022-10-17T05:43:05.364Z,12.12
2022-10-17T05:45:31.805Z,12.27
2022-10-17T05:47:58.215Z,12.24
2022-10-17T05:50:25.206Z,12.30
2022-10-17T05:52:55.783Z,12.14
2022-10-17T05:55:23.263Z,12.26
2022-10-17T05:57:52.489Z,12.15
2022-10-17T06:00:19.727Z,12.10
2022-10-17T06:02:46.593Z,12.09
2022-10-17T06:05:13.995Z,12.17
2022-10-17T06:07:41.255Z,12.12
2022-10-17T06:10:08.112Z,12.22
2022-10-17T06:12:34.526Z,12.26
2022-10-17T06:15:01.115Z,12.15
2022-10-17T06:17:29.222Z,12.12
2022-10-17T06:19:56.635Z,12.15
2022-10-17T06:22:23.450Z,12.31
2022-10-17T06:24:49.955Z,12.44
2022-10-17T06:27:16.344Z,12.51
2022-10-17T06:29:42.744Z,12.57
2022-10-17T06:32:12.562Z,12.43
2022-10-17T06:34:41.406Z,12.52
2022-10-17T06:37:07.945Z,12.59
2022-10-17T06:39:36.028Z,12.54
2022-10-17T06:42:04.210Z,12.59
2022-10-17T06:44:31.824Z,12.80
2022-10-17T06:46:59.634Z,12.80
2022-10-17T06:49:26.983Z,12.84
2022-10-17T06:51:53.967Z,13.06
2022-10-17T06:54:20.684Z,12.99
2022-10-17T06:56:47.083Z,13.03
2022-10-17T06:59:13.553Z,12.95
2022-10-17T07:01:41.894Z,13.19
2022-10-17T07:04:11.241Z,13.10
2022-10-17T07:06:38.582Z,13.31
2022-10-17T07:09:06.940Z,13.35
2022-10-17T07:11:35.021Z,13.44
2022-10-17T07:14:02.399Z,13.36
2022-10-17T07:16:28.895Z,13.34
2022-10-17T07:18:55.611Z,13.37
2022-10-17T07:21:22.067Z,13.56
2022-10-17T07:23:48.524Z,13.75
2022-10-17T07:26:16.884Z,13.74
2022-10-17T07:28:44.268Z,13.86
2022-10-17T07:31:13.467Z,13.87
2022-10-17T07:33:39.954Z,13.85
2022-10-17T07:36:06.705Z,14.04
2022-10-17T07:38:33.946Z,14.17
2022-10-17T07:41:02.905Z,14.22
2022-10-17T07:43:30.190Z,14.22
2022-10-17T07:45:57.126Z,14.39
2022-10-17T07:48:25.473Z,14.48
2022-10-17T07:50:51.864Z,14.59
2022-10-17T07:53:18.829Z,14.79
2022-10-17T07:55:46.385Z,14.86
2022-10-17T07:58:14.001Z,14.64
2022-10-17T08:00:40.525Z,15.01
2022-10-17T08:03:07.368Z,15.20
2022-10-17T08:05:34.431Z,15.38
2022-10-17T08:08:00.932Z,15.56
2022-10-17T08:10:29.236Z,15.73
2022-10-17T08:12:56.454Z,15.69
2022-10-17T08:15:26.789Z,15.55
2022-10-17T08:17:56.022Z,15.83
2022-10-17T08:20:22.553Z,15.71
2022-10-17T08:22:55.669Z,15.46
2022-10-17T08:25:22.853Z,15.44
2022-10-17T08:27:49.972Z,15.62
2022-10-17T08:30:16.955Z,15.43
2022-10-17T08:32:44.297Z,15.47
2022-10-17T08:35:10.897Z,15.73
2022-10-17T08:37:37.416Z,15.75
2022-10-17T08:40:04.518Z,15.89
2022-10-17T08:42:50.996Z,15.64
2022-10-17T08:45:38.141Z,15.52
2022-10-17T08:48:12.218Z,15.39
2022-10-17T08:51:02.029Z,15.53
2022-10-17T08:53:48.018Z,15.71
2022-10-17T08:56:44.142Z,15.52
2022-10-17T08:59:14.610Z,15.50
2022-10-17T09:02:01.642Z,15.68
2022-10-17T09:05:01.538Z,15.61
2022-10-17T09:07:39.595Z,15.73
2022-10-17T09:10:28.348Z,15.92
2022-10-17T09:13:25.834Z,15.72
2022-10-17T09:16:04.465Z,15.83
2022-10-17T09:18:36.327Z,15.62
2022-10-17T09:21:26.497Z,15.90
2022-10-17T09:24:09.731Z,16.09
2022-10-17T09:26:44.339Z,16.52
2022-10-17T09:29:22.354Z,16.91
2022-10-17T09:32:11.285Z,16.89
2022-10-17T09:34:37.908Z,17.09
2022-10-17T09:37:12.493Z,16.87
2022-10-17T09:39:38.981Z,17.02
2022-10-17T09:42:05.511Z,16.78
2022-10-17T09:44:33.435Z,16.78
2022-10-17T09:47:13.572Z,16.95
2022-10-17T09:49:45.363Z,17.00
2022-10-17T09:52:22.961Z,17.37
2022-10-17T09:54:57.283Z,17.51
2022-10-17T09:57:23.846Z,17.48
2022-10-17T09:59:58.749Z,17.78
2022-10-17T10:02:27.469Z,18.08
2022-10-17T10:05:05.912Z,18.12
2022-10-17T10:07:38.774Z,18.22
2022-10-17T10:10:08.696Z,18.51
2022-10-17T10:12:38.328Z,18.35
2022-10-17T10:15:33.652Z,18.29
2022-10-17T10:18:00.384Z,18.52
2022-10-17T10:20:36.799Z,18.72
2022-10-17T10:23:15.944Z,19.06
2022-10-17T10:25:53.091Z,19.31
2022-10-17T10:28:20.020Z,19.32
2022-10-17T10:30:49.762Z,19.44
2022-10-17T10:33:18.824Z,19.67
2022-10-17T10:35:54.285Z,19.89
2022-10-17T10:38:21.011Z,20.24
2022-10-17T10:40:50.152Z,20.42
2022-10-17T10:43:32.947Z,20.30
2022-10-17T10:46:00.553Z,20.20
2022-10-17T10:48:36.689Z,19.71
2022-10-17T10:51:19.511Z,20.23
2022-10-17T10:53:53.435Z,20.15
2022-10-17T10:56:25.991Z,20.39
2022-10-17T10:59:19.246Z,21.01
2022-10-17T11:02:17.892Z,21.12
2022-10-17T11:04:49.806Z,20.25
2022-10-17T11:07:24.930Z,19.73
2022-10-17T11:10:21.611Z,19.47
2022-10-17T11:13:13.872Z,19.62
2022-10-17T11:15:57.756Z,19.63
2022-10-17T11:18:34.162Z,19.84
2022-10-17T11:21:13.173Z,19.34
2022-10-17T11:24:07.039Z,19.16
2022-10-17T11:26:41.941Z,18.81
2022-10-17T11:29:11.910Z,18.86
2022-10-17T11:31:44.807Z,19.07
2022-10-17T11:34:27.519Z,18.80
2022-10-17T11:37:02.495Z,18.91
2022-10-17T11:39:47.342Z,18.81
2022-10-17T11:42:18.124Z,19.10
2022-10-17T11:44:44.931Z,19.09
2022-10-17T11:47:35.873Z,19.07
2022-10-17T11:53:16.719Z,19.00
2022-10-17T11:55:44.344Z,18.86
2022-10-17T11:58:35.006Z,18.72
2022-10-17T12:01:16.600Z,18.77
2022-10-17T12:03:58.734Z,18.66
2022-10-17T12:06:46.494Z,19.32
2022-10-17T12:09:54.411Z,19.60
2022-10-17T12:12:35.119Z,19.81
2022-10-17T12:15:13.990Z,19.63
2022-10-17T12:17:55.608Z,20.54
2022-10-17T12:20:25.142Z,20.59
2022-10-17T12:22:53.109Z,20.22
2022-10-17T12:25:29.741Z,20.07
2022-10-17T12:28:17.491Z,20.06
2022-10-17T12:30:51.674Z,19.40
2022-10-17T12:33:22.597Z,19.38
2022-10-17T12:35:51.205Z,19.20
2022-10-17T12:38:17.560Z,19.22
2022-10-17T12:40:47.862Z,19.29
2022-10-17T12:43:16.217Z,19.08
2022-10-17T12:45:50.208Z,18.82
2022-10-17T12:48:38.529Z,18.68
2022-10-17T12:51:35.191Z,18.52
2022-10-17T12:54:12.208Z,18.55
2022-10-17T12:56:41.973Z,18.28
2022-10-17T12:59:29.299Z,18.51
2022-10-17T13:02:01.744Z,18.09
2022-10-17T13:04:29.819Z,17.85
2022-10-17T13:06:59.110Z,17.42
2022-10-17T13:09:37.473Z,17.22
2022-10-17T13:12:11.172Z,17.12
2022-10-17T13:14:41.482Z,17.12
2022-10-17T13:17:28.735Z,17.07
2022-10-17T13:19:55.894Z,17.02
2022-10-17T13:22:25.395Z,16.97
2022-10-17T13:24:53.953Z,16.94
2022-10-17T13:27:28.435Z,16.83
2022-10-17T13:29:56.762Z,16.72
2022-10-17T13:32:24.137Z,16.77
2022-10-17T13:35:08.333Z,16.79
2022-10-17T13:37:36.137Z,16.66
2022-10-17T13:40:17.469Z,16.62
2022-10-17T13:42:50.970Z,16.66
2022-10-17T13:45:29.412Z,16.63
2022-10-17T13:47:57.617Z,16.61
2022-10-17T13:50:44.840Z,16.58
2022-10-17T13:53:19.160Z,16.50
2022-10-17T13:56:26.351Z,16.52
2022-10-17T13:58:53.289Z,16.66
2022-10-17T14:01:21.371Z,16.74
2022-10-17T14:03:50.604Z,16.77
2022-10-17T14:06:27.973Z,16.79
2022-10-17T14:09:06.528Z,16.88
2022-10-17T14:11:37.842Z,16.81
2022-10-17T14:14:07.154Z,16.83
2022-10-17T14:16:37.173Z,16.88
2022-10-17T14:19:05.176Z,16.84
2022-10-17T14:21:43.327Z,16.83
2022-10-17T14:24:37.081Z,16.88
2022-10-17T14:27:03.609Z,16.82
2022-10-17T14:29:32.880Z,16.70
2022-10-17T14:32:05.379Z,16.71
2022-10-17T14:34:35.660Z,16.67
2022-10-17T14:37:08.003Z,16.78
2022-10-17T14:39:34.423Z,16.55
2022-10-17T14:42:04.410Z,16.64
2022-10-17T14:44:33.924Z,16.51
2022-10-17T14:47:18.318Z,16.50
2022-10-17T14:49:52.204Z,16.53
2022-10-17T14:52:29.210Z,16.43
2022-10-17T14:54:57.385Z,16.41
2022-10-17T14:57:28.732Z,16.49
2022-10-17T14:59:56.530Z,16.35
2022-10-17T15:02:25.474Z,16.37
2022-10-17T15:04:52.713Z,16.25
2022-10-17T15:07:21.046Z,16.25
2022-10-17T15:09:48.408Z,16.26
2022-10-17T15:12:25.138Z,16.25
2022-10-17T15:14:52.870Z,16.23
2022-10-17T15:17:24.190Z,16.20
2022-10-17T15:19:50.836Z,16.08
2022-10-17T15:22:18.236Z,16.09
2022-10-17T15:24:48.058Z,15.94
2022-10-17T15:27:17.193Z,15.94
2022-10-17T15:29:44.762Z,15.91
2022-10-17T15:32:11.426Z,15.76
2022-10-17T15:34:38.059Z,15.69
2022-10-17T15:37:06.760Z,15.62
2022-10-17T15:39:33.583Z,15.58
2022-10-17T15:42:00.123Z,15.55
2022-10-17T15:44:26.644Z,15.43
2022-10-17T15:46:55.427Z,15.29
2022-10-17T15:49:21.824Z,15.21
2022-10-17T15:51:51.705Z,15.18
2022-10-17T15:54:21.857Z,15.13
2022-10-17T15:56:54.077Z,14.98
2022-10-17T15:59:26.671Z,15.01
2022-10-17T16:01:53.171Z,14.88
2022-10-17T16:04:19.645Z,14.97
2022-10-17T16:06:46.118Z,14.84
2022-10-17T16:09:12.591Z,14.80
2022-10-17T16:11:43.277Z,14.78
2022-10-17T16:14:15.536Z,15.00
2022-10-17T16:16:42.387Z,14.82
2022-10-17T16:19:09.025Z,14.81
2022-10-17T16:21:39.991Z,14.70
2022-10-17T16:24:07.055Z,14.69
2022-10-17T16:26:33.524Z,14.70
2022-10-17T16:29:02.759Z,14.76
2022-10-17T16:31:33.541Z,14.69
2022-10-17T16:34:01.552Z,14.82
2022-10-17T16:36:28.600Z,14.99
2022-10-17T16:38:55.127Z,14.83
2022-10-17T16:41:34.268Z,14.70
2022-10-17T16:44:04.284Z,14.81
2022-10-17T16:46:32.198Z,14.95
2022-10-17T16:48:59.408Z,14.86
2022-10-17T16:51:25.975Z,14.84
2022-10-17T16:53:54.365Z,14.94
2022-10-17T16:56:22.722Z,14.80
2022-10-17T16:58:49.253Z,14.90
2022-10-17T17:01:23.260Z,14.88
2022-10-17T17:03:50.838Z,14.77
2022-10-17T17:06:20.650Z,14.84
2022-10-17T17:08:47.628Z,14.80
2022-10-17T17:11:15.679Z,14.95
2022-10-17T17:13:42.537Z,14.85
2022-10-17T17:16:11.825Z,14.78
2022-10-17T17:18:38.652Z,14.81
2022-10-17T17:21:07.262Z,14.75
2022-10-17T17:23:36.028Z,14.75
2022-10-17T17:26:05.619Z,14.72
2022-10-17T17:28:33.650Z,14.75
2022-10-17T17:31:00.848Z,14.69
2022-10-17T17:33:29.728Z,14.73
2022-10-17T17:35:58.204Z,14.87
2022-10-17T17:38:24.880Z,14.73
2022-10-17T17:40:51.956Z,14.71
2022-10-17T17:43:18.859Z,14.65
2022-10-17T17:45:45.606Z,14.70
2022-10-17T17:48:12.340Z,14.76
2022-10-17T17:50:40.562Z,14.74
2022-10-17T17:53:08.456Z,14.64
2022-10-17T17:55:34.996Z,14.64
2022-10-17T17:58:02.042Z,14.73
2022-10-17T18:00:29.105Z,14.65
2022-10-17T18:02:56.424Z,14.73
2022-10-17T18:05:22.989Z,14.74
2022-10-17T18:07:49.459Z,14.65
2022-10-17T18:10:16.089Z,14.69
2022-10-17T18:12:42.696Z,14.66
2022-10-17T18:15:09.554Z,14.68
2022-10-17T18:17:36.335Z,14.60
2022-10-17T18:20:03.445Z,14.67
2022-10-17T18:22:30.027Z,14.58
2022-10-17T18:24:56.629Z,14.56
2022-10-17T18:27:23.319Z,14.55
2022-10-17T18:29:51.138Z,14.63
2022-10-17T18:32:18.073Z,14.68
2022-10-17T18:34:44.472Z,14.71
2022-10-17T18:37:10.886Z,14.56
2022-10-17T18:39:37.330Z,14.56
2022-10-17T18:42:03.859Z,14.60
2022-10-17T18:44:32.533Z,14.60
2022-10-17T18:47:03.047Z,14.52
2022-10-17T18:49:30.988Z,14.48
2022-10-17T18:51:57.706Z,14.47
2022-10-17T18:54:27.087Z,14.44
2022-10-17T18:56:54.447Z,14.35
2022-10-17T18:59:21.224Z,14.32
2022-10-17T19:01:48.744Z,14.31
2022-10-17T19:04:15.372Z,14.30
2022-10-17T19:06:42.180Z,14.27
2022-10-17T19:09:10.912Z,14.36
2022-10-17T19:11:38.559Z,14.22
2022-10-17T19:14:12.812Z,14.32
2022-10-17T19:16:43.326Z,14.22
2022-10-17T19:19:21.616Z,14.14
2022-10-17T19:21:48.550Z,14.18
2022-10-17T19:24:18.843Z,14.25
2022-10-17T19:26:46.636Z,14.14
2022-10-17T19:29:15.153Z,14.16
2022-10-17T19:31:41.961Z,14.10
2022-10-17T19:34:09.863Z,14.11
2022-10-17T19:36:36.427Z,14.01
2022-10-17T19:39:05.796Z,13.95
2022-10-17T19:41:33.076Z,13.96
2022-10-17T19:44:00.431Z,14.06
2022-10-17T19:46:28.627Z,13.96
2022-10-17T19:48:55.671Z,13.93
2022-10-17T19:51:24.488Z,13.84
2022-10-17T19:53:52.476Z,13.82
2022-10-17T19:56:23.249Z,13.88
2022-10-17T19:58:50.852Z,13.85
2022-10-17T20:01:20.769Z,14.06
2022-10-17T20:03:47.697Z,14.04
2022-10-17T20:06:14.361Z,13.99
2022-10-17T20:08:41.852Z,14.11
2022-10-17T20:11:13.062Z,14.09
2022-10-17T20:13:40.549Z,14.11
2022-10-17T20:16:09.055Z,13.98
2022-10-17T20:18:35.770Z,13.99
2022-10-17T20:21:05.166Z,13.96
2022-10-17T20:23:31.790Z,13.84
2022-10-17T20:26:13.354Z,14.01
2022-10-17T20:28:45.563Z,13.94
2022-10-17T20:31:12.755Z,13.91
2022-10-17T20:33:41.381Z,13.94
2022-10-17T20:36:10.019Z,14.09
2022-10-17T20:38:36.719Z,13.99
2022-10-17T20:41:08.777Z,14.16
2022-10-17T20:43:36.590Z,14.06
2022-10-17T20:46:21.917Z,14.05
2022-10-17T20:48:54.033Z,14.12
2022-10-17T20:51:21.732Z,14.09
2022-10-17T20:53:48.830Z,14.22
2022-10-17T20:56:27.368Z,14.18
2022-10-17T20:58:56.414Z,14.29
2022-10-17T21:01:23.846Z,14.14
2022-10-17T21:03:50.626Z,14.23
2022-10-17T21:06:18.155Z,14.33
2022-10-17T21:08:46.242Z,14.28
2022-10-17T21:11:21.885Z,14.35
2022-10-17T21:13:53.689Z,14.16
2022-10-17T21:16:20.361Z,14.17
2022-10-17T21:18:46.864Z,14.02
2022-10-17T21:21:16.599Z,14.03
2022-10-17T21:23:44.433Z,14.10
2022-10-17T21:26:12.665Z,14.22
2022-10-17T21:28:42.476Z,14.18
2022-10-17T21:31:17.945Z,14.09
2022-10-17T21:33:50.116Z,14.15
2022-10-17T21:36:17.494Z,13.99
2022-10-17T21:38:48.767Z,14.00
2022-10-17T21:41:17.709Z,14.15
2022-10-17T21:43:44.116Z,14.05
2022-10-17T21:46:14.147Z,14.20
2022-10-17T21:48:41.206Z,14.16
2022-10-17T21:51:10.941Z,14.16
2022-10-17T21:53:38.079Z,14.21
2022-10-17T21:56:07.324Z,14.17
2022-10-17T21:58:33.786Z,14.08
2022-10-17T22:01:10.380Z,14.13
2022-10-17T22:03:42.691Z,14.08
2022-10-17T22:09:00.657Z,14.17
2022-10-17T22:11:30.331Z,14.17
2022-10-17T22:14:01.982Z,14.04
2022-10-17T22:16:28.893Z,14.09
2022-10-17T22:19:06.216Z,13.96
2022-10-17T22:21:34.764Z,13.83
2022-10-17T22:24:06.868Z,13.89
2022-10-17T22:26:35.584Z,13.89
2022-10-17T22:29:03.044Z,13.84
2022-10-17T22:31:29.586Z,14.05
2022-10-17T22:33:56.417Z,13.95
2022-10-17T22:36:23.088Z,13.81
2022-10-17T22:38:49.552Z,13.98
2022-10-17T22:41:15.999Z,13.82
2022-10-17T22:43:42.567Z,13.76
2022-10-17T22:46:12.851Z,14.00
2022-10-17T22:48:39.683Z,14.03
2022-10-17T22:51:06.324Z,13.80
2022-10-17T22:53:32.754Z,13.79
2022-10-17T22:56:01.081Z,13.72
2022-10-17T22:58:28.283Z,13.90
2022-10-17T23:00:55.060Z,13.86
2022-10-17T23:03:22.648Z,13.90
2022-10-17T23:05:49.715Z,14.00
2022-10-17T23:08:18.008Z,13.93
2022-10-17T23:10:44.955Z,13.92
2022-10-17T23:13:11.836Z,13.77
2022-10-17T23:15:38.311Z,13.70
2022-10-17T23:18:04.870Z,13.65
2022-10-17T23:20:31.610Z,13.70
2022-10-17T23:22:59.181Z,13.66
2022-10-17T23:25:25.927Z,13.66
2022-10-17T23:27:52.423Z,13.75
2022-10-17T23:30:18.939Z,13.69
2022-10-17T23:32:45.364Z,13.59
2022-10-17T23:35:13.251Z,13.61
2022-10-17T23:37:39.681Z,13.38
2022-10-17T23:40:06.707Z,13.65
2022-10-17T23:42:33.129Z,13.61
2022-10-17T23:44:59.568Z,13.53
2022-10-17T23:47:26.008Z,13.65
2022-10-17T23:49:52.449Z,13.66
2022-10-17T23:52:18.906Z,13.65
2022-10-17T23:54:45.353Z,13.54
2022-10-17T23:57:11.785Z,13.70
2022-10-17T23:59:38.226Z,13.49
